Time;durP1;ratioP1;P1;durP2;ratioP2;P2;SDS_P1;SDS_P2;PMS_P1;PMS_P2;Temp;Humidity;BMP_temperature;BMP_pressure;BME280_temperature;BME280_humidity;BME280_pressure;Samples;Min_cycle;Max_cycle;Signal;HPM_P1;HPM_P2
2023/12/30 00:00:17;;;;;;;5.13;1.57;;;;;;;;;;5026088;28;20029;-62
2023/12/30 00:02:42;;;;;;;6.20;1.60;;;;;;;;;;5012712;28;20037;-62
2023/12/30 00:05:07;;;;;;;4.47;1.40;;;;;;;;;;5023139;28;20394;-62
2023/12/30 00:07:33;;;;;;;4.00;1.43;;;;;;;;;;5022925;28;20017;-62
2023/12/30 00:09:58;;;;;;;4.10;1.40;;;;;;;;;;5030821;28;20029;-63
2023/12/30 00:12:23;;;;;;;4.37;1.43;;;;;;;;;;5022074;28;20056;-62
2023/12/30 00:14:49;;;;;;;4.87;1.40;;;;;;;;;;5026498;28;20025;-62
2023/12/30 00:17:14;;;;;;;3.43;1.17;;;;;;;;;;5031139;28;20032;-62
2023/12/30 00:19:44;;;;;;;2.80;1.00;;;;;;;;;;5025684;28;20507;-62
2023/12/30 00:22:10;;;;;;;2.77;0.97;;;;;;;;;;5024687;28;20067;-61
2023/12/30 00:24:35;;;;;;;5.23;1.20;;;;;;;;;;5022991;28;20033;-61
2023/12/30 00:27:00;;;;;;;5.27;1.40;;;;;;;;;;5023956;28;20057;-62
2023/12/30 00:29:26;;;;;;;3.33;1.07;;;;;;;;;;5027149;28;20033;-61
2023/12/30 00:31:51;;;;;;;3.20;1.30;;;;;;;;;;5018910;28;20026;-61
2023/12/30 00:34:17;;;;;;;4.13;1.20;;;;;;;;;;5024593;28;20029;-61
2023/12/30 00:36:45;;;;;;;2.73;1.10;;;;;;;;;;5025173;28;20026;-62
2023/12/30 00:39:10;;;;;;;4.00;1.30;;;;;;;;;;5026289;28;20025;-61
2023/12/30 00:41:36;;;;;;;7.37;1.60;;;;;;;;;;5028783;28;20025;-62
2023/12/30 00:44:01;;;;;;;6.37;1.40;;;;;;;;;;5022858;28;20104;-62
2023/12/30 00:46:26;;;;;;;5.80;1.20;;;;;;;;;;5021350;28;20021;-61
2023/12/30 00:48:52;;;;;;;4.00;1.20;;;;;;;;;;5021799;28;20029;-62
2023/12/30 00:51:17;;;;;;;4.33;1.00;;;;;;;;;;5022896;28;20028;-61
2023/12/30 00:53:42;;;;;;;1.17;0.70;;;;;;;;;;5023812;28;20033;-61
2023/12/30 00:56:08;;;;;;;5.33;0.87;;;;;;;;;;5026498;28;20038;-61
2023/12/30 00:58:33;;;;;;;3.27;1.13;;;;;;;;;;5025475;28;20055;-61
2023/12/30 01:00:59;;;;;;;3.70;1.10;;;;;;;;;;5022869;28;20025;-62
2023/12/30 01:03:24;;;;;;;6.63;0.90;;;;;;;;;;5022541;28;20406;-61
2023/12/30 01:05:49;;;;;;;3.53;1.10;;;;;;;;;;5020969;28;20029;-60
2023/12/30 01:08:14;;;;;;;5.50;1.10;;;;;;;;;;5022967;28;20444;-61
2023/12/30 01:10:40;;;;;;;4.30;1.30;;;;;;;;;;5025654;28;20076;-61
2023/12/30 01:13:05;;;;;;;3.33;0.80;;;;;;;;;;5026340;28;20474;-61
2023/12/30 01:15:31;;;;;;;2.03;0.90;;;;;;;;;;5022324;28;20056;-61
2023/12/30 01:17:56;;;;;;;4.70;1.00;;;;;;;;;;5023928;28;20470;-61
2023/12/30 01:20:21;;;;;;;3.17;1.13;;;;;;;;;;5024609;28;20378;-62
2023/12/30 01:22:47;;;;;;;3.50;1.33;;;;;;;;;;5023281;28;20481;-61
2023/12/30 01:25:12;;;;;;;3.50;0.90;;;;;;;;;;5024987;28;20025;-61
2023/12/30 01:27:37;;;;;;;3.30;1.00;;;;;;;;;;5022511;28;20071;-62
2023/12/30 01:30:03;;;;;;;2.90;0.77;;;;;;;;;;5022435;28;20156;-61
2023/12/30 01:32:28;;;;;;;3.90;0.90;;;;;;;;;;5021158;28;20040;-61
2023/12/30 01:34:53;;;;;;;6.13;1.23;;;;;;;;;;5025756;28;20022;-61
2023/12/30 01:37:18;;;;;;;4.00;1.13;;;;;;;;;;5027678;28;20037;-61
2023/12/30 01:39:44;;;;;;;6.47;1.30;;;;;;;;;;5024679;28;20021;-61
2023/12/30 01:42:09;;;;;;;8.73;1.87;;;;;;;;;;5018603;28;20441;-62
2023/12/30 01:44:35;;;;;;;4.90;1.17;;;;;;;;;;5020850;28;20041;-61
2023/12/30 01:47:00;;;;;;;6.03;1.30;;;;;;;;;;5029498;28;20036;-62
2023/12/30 01:49:25;;;;;;;5.07;1.27;;;;;;;;;;5020036;28;20418;-61
2023/12/30 01:51:51;;;;;;;6.50;1.30;;;;;;;;;;5014520;28;20425;-62
2023/12/30 01:54:17;;;;;;;4.83;1.03;;;;;;;;;;5016044;28;20079;-64
2023/12/30 01:56:42;;;;;;;3.80;0.80;;;;;;;;;;5019171;28;20033;-63
2023/12/30 01:59:08;;;;;;;2.30;0.90;;;;;;;;;;5019300;28;20173;-64
2023/12/30 02:01:33;;;;;;;7.40;1.43;;;;;;;;;;5014093;28;20026;-63
2023/12/30 02:03:58;;;;;;;4.47;1.00;;;;;;;;;;5015829;28;20037;-64
2023/12/30 02:06:24;;;;;;;5.47;1.20;;;;;;;;;;5023704;28;20029;-64
2023/12/30 02:08:49;;;;;;;5.30;1.07;;;;;;;;;;5027991;28;20037;-63
2023/12/30 02:11:15;;;;;;;6.60;1.10;;;;;;;;;;5021659;28;20034;-64
2023/12/30 02:13:43;;;;;;;2.63;0.90;;;;;;;;;;5022952;28;20025;-64
2023/12/30 02:16:08;;;;;;;4.03;1.10;;;;;;;;;;5021036;28;20073;-64
2023/12/30 02:18:34;;;;;;;2.50;0.90;;;;;;;;;;5013550;28;20501;-63
2023/12/30 02:20:59;;;;;;;4.13;0.90;;;;;;;;;;5023356;28;20020;-63
2023/12/30 02:23:24;;;;;;;4.77;1.30;;;;;;;;;;5021914;28;20041;-63
2023/12/30 02:25:50;;;;;;;5.80;0.80;;;;;;;;;;5024052;28;20054;-63
2023/12/30 02:28:16;;;;;;;5.37;1.00;;;;;;;;;;5019418;28;20056;-63
2023/12/30 02:30:41;;;;;;;7.30;1.17;;;;;;;;;;5022855;28;20052;-63
2023/12/30 02:33:06;;;;;;;7.23;1.33;;;;;;;;;;5022772;28;20032;-63
2023/12/30 02:35:31;;;;;;;6.60;1.20;;;;;;;;;;5022179;28;20033;-63
2023/12/30 02:37:57;;;;;;;3.83;0.77;;;;;;;;;;5021283;28;20033;-63
2023/12/30 02:40:22;;;;;;;3.53;1.00;;;;;;;;;;5021849;28;20068;-64
2023/12/30 02:42:47;;;;;;;5.87;1.20;;;;;;;;;;5021332;28;20037;-63
2023/12/30 02:45:13;;;;;;;3.27;1.00;;;;;;;;;;5025697;28;20022;-63
2023/12/30 02:47:38;;;;;;;3.30;0.83;;;;;;;;;;5020400;28;20028;-63
2023/12/30 02:50:03;;;;;;;5.07;0.90;;;;;;;;;;5022460;28;20033;-63
2023/12/30 02:52:30;;;;;;;5.53;1.73;;;;;;;;;;5021487;28;20386;-63
2023/12/30 02:54:56;;;;;;;8.30;1.33;;;;;;;;;;5022296;28;20032;-63
2023/12/30 02:57:23;;;;;;;6.57;1.17;;;;;;;;;;5020350;28;20021;-63
2023/12/30 02:59:48;;;;;;;4.70;1.00;;;;;;;;;;5016446;28;20083;-63
2023/12/30 03:02:13;;;;;;;5.37;1.30;;;;;;;;;;5024350;28;20042;-63
2023/12/30 03:04:39;;;;;;;7.97;1.03;;;;;;;;;;5019141;28;20112;-63
2023/12/30 03:07:04;;;;;;;8.70;1.20;;;;;;;;;;5021075;28;20437;-63
2023/12/30 03:09:29;;;;;;;4.37;0.93;;;;;;;;;;5019142;28;20052;-62
2023/12/30 03:11:54;;;;;;;2.80;1.20;;;;;;;;;;5017807;28;20057;-63
2023/12/30 03:14:19;;;;;;;6.50;1.00;;;;;;;;;;5015235;28;20018;-63
2023/12/30 03:16:45;;;;;;;4.43;1.63;;;;;;;;;;5025364;28;20061;-62
2023/12/30 03:19:10;;;;;;;6.10;1.30;;;;;;;;;;5022214;28;20424;-62
2023/12/30 03:21:35;;;;;;;9.67;1.17;;;;;;;;;;5018016;28;20079;-63
2023/12/30 03:24:00;;;;;;;6.10;0.97;;;;;;;;;;5018485;28;20421;-63
2023/12/30 03:26:26;;;;;;;6.53;1.20;;;;;;;;;;5025130;28;20053;-62
2023/12/30 03:28:51;;;;;;;4.93;1.37;;;;;;;;;;5019560;28;20037;-63
2023/12/30 03:31:35;;;;;;;10.23;1.27;;;;;;;;;;5020354;28;20022;-62
2023/12/30 03:34:00;;;;;;;4.93;1.50;;;;;;;;;;5020467;28;20039;-62
2023/12/30 03:36:26;;;;;;;3.40;0.80;;;;;;;;;;5023960;28;20042;-63
2023/12/30 03:38:52;;;;;;;3.73;0.80;;;;;;;;;;5022319;28;20022;-64
2023/12/30 03:41:17;;;;;;;4.43;1.13;;;;;;;;;;5022274;28;20075;-62
2023/12/30 03:43:43;;;;;;;4.37;0.87;;;;;;;;;;5021077;28;20017;-62
2023/12/30 03:46:08;;;;;;;6.83;2.00;;;;;;;;;;5024550;28;20095;-63
2023/12/30 03:48:33;;;;;;;8.57;1.17;;;;;;;;;;5019612;28;20034;-61
2023/12/30 03:50:59;;;;;;;3.70;0.80;;;;;;;;;;5023124;28;20053;-63
2023/12/30 03:53:24;;;;;;;11.13;1.20;;;;;;;;;;5028578;28;20120;-63
2023/12/30 03:55:49;;;;;;;7.80;1.80;;;;;;;;;;5026786;28;20030;-62
2023/12/30 03:58:14;;;;;;;4.43;1.00;;;;;;;;;;5020511;28;20034;-62
2023/12/30 04:00:40;;;;;;;6.40;1.10;;;;;;;;;;5023695;28;20025;-63
2023/12/30 04:03:05;;;;;;;11.43;1.33;;;;;;;;;;5034750;28;20057;-62
2023/12/30 04:05:30;;;;;;;10.60;1.43;;;;;;;;;;5031600;28;20517;-62
2023/12/30 04:07:55;;;;;;;10.30;1.23;;;;;;;;;;5024163;28;20032;-63
2023/12/30 04:10:21;;;;;;;5.23;1.00;;;;;;;;;;5022322;28;20030;-63
2023/12/30 04:12:46;;;;;;;4.33;1.37;;;;;;;;;;5019134;28;20025;-63
2023/12/30 04:15:11;;;;;;;3.17;1.00;;;;;;;;;;5018655;28;20482;-63
2023/12/30 04:17:37;;;;;;;4.00;1.10;;;;;;;;;;5024487;28;20052;-63
2023/12/30 04:20:02;;;;;;;6.23;1.70;;;;;;;;;;5019319;28;20048;-62
2023/12/30 04:22:28;;;;;;;2.33;0.67;;;;;;;;;;5020682;28;20427;-62
2023/12/30 04:24:54;;;;;;;4.13;1.20;;;;;;;;;;5029041;28;20038;-63
2023/12/30 04:27:19;;;;;;;5.97;1.10;;;;;;;;;;5026129;28;20061;-62
2023/12/30 04:29:44;;;;;;;6.23;1.00;;;;;;;;;;5024545;28;20483;-63
2023/12/30 04:32:09;;;;;;;5.70;0.90;;;;;;;;;;5023389;28;20033;-62
2023/12/30 04:34:35;;;;;;;4.47;1.00;;;;;;;;;;5025498;28;20060;-63
2023/12/30 04:37:01;;;;;;;6.33;0.90;;;;;;;;;;5026915;28;20018;-63
2023/12/30 04:39:26;;;;;;;6.30;0.80;;;;;;;;;;5022323;28;20378;-63
2023/12/30 04:41:51;;;;;;;8.83;1.03;;;;;;;;;;5022579;28;20026;-62
2023/12/30 04:44:17;;;;;;;6.93;1.00;;;;;;;;;;5028668;28;20136;-63
2023/12/30 04:46:42;;;;;;;5.97;0.87;;;;;;;;;;5024811;28;20083;-62
2023/12/30 04:49:07;;;;;;;4.53;1.33;;;;;;;;;;5026002;28;20017;-62
2023/12/30 04:51:32;;;;;;;8.30;1.10;;;;;;;;;;5024871;28;20025;-63
2023/12/30 04:53:58;;;;;;;6.70;1.10;;;;;;;;;;5025924;28;20104;-62
2023/12/30 04:56:23;;;;;;;4.43;1.07;;;;;;;;;;5023796;28;20033;-62
2023/12/30 04:58:48;;;;;;;9.03;0.90;;;;;;;;;;5025333;28;20025;-62
2023/12/30 05:01:13;;;;;;;6.20;1.10;;;;;;;;;;5027372;28;20398;-63
2023/12/30 05:03:40;;;;;;;10.67;1.37;;;;;;;;;;5025178;28;20025;-62
2023/12/30 05:06:06;;;;;;;5.13;0.90;;;;;;;;;;5023492;28;20030;-62
2023/12/30 05:08:31;;;;;;;9.27;1.67;;;;;;;;;;5025680;28;20376;-63
2023/12/30 05:10:56;;;;;;;4.40;1.03;;;;;;;;;;5023932;28;20030;-63
2023/12/30 05:13:22;;;;;;;6.97;1.60;;;;;;;;;;5026459;28;20021;-62
2023/12/30 05:15:48;;;;;;;11.10;1.23;;;;;;;;;;5020806;28;20065;-62
2023/12/30 05:18:14;;;;;;;5.13;0.80;;;;;;;;;;5019423;28;20021;-63
2023/12/30 05:20:40;;;;;;;5.00;1.30;;;;;;;;;;5019532;28;20091;-62
2023/12/30 05:23:05;;;;;;;9.27;1.07;;;;;;;;;;5021851;28;20056;-62
2023/12/30 05:25:30;;;;;;;4.00;0.93;;;;;;;;;;5020652;28;20117;-62
2023/12/30 05:27:55;;;;;;;5.93;1.30;;;;;;;;;;5018733;28;20022;-62
2023/12/30 05:30:21;;;;;;;7.27;0.97;;;;;;;;;;5019964;28;20040;-63
2023/12/30 05:32:47;;;;;;;9.40;1.23;;;;;;;;;;5020237;28;20057;-62
2023/12/30 05:35:12;;;;;;;4.73;1.17;;;;;;;;;;5023151;28;20079;-62
2023/12/30 05:37:38;;;;;;;5.93;1.10;;;;;;;;;;5016052;28;20026;-63
2023/12/30 05:40:06;;;;;;;13.97;1.83;;;;;;;;;;5017771;28;20026;-62
2023/12/30 05:42:31;;;;;;;11.73;1.27;;;;;;;;;;5024289;28;20053;-63
2023/12/30 05:44:56;;;;;;;7.00;1.00;;;;;;;;;;5027569;28;20478;-63
2023/12/30 05:47:21;;;;;;;10.53;1.50;;;;;;;;;;5018219;28;20025;-63
2023/12/30 05:49:47;;;;;;;5.60;1.27;;;;;;;;;;5019879;28;20445;-62
2023/12/30 05:52:12;;;;;;;9.80;1.60;;;;;;;;;;5024300;28;20108;-63
2023/12/30 05:54:37;;;;;;;13.80;1.90;;;;;;;;;;5025128;28;20650;-62
2023/12/30 05:57:03;;;;;;;6.63;1.23;;;;;;;;;;5025784;28;20056;-62
2023/12/30 05:59:28;;;;;;;6.57;1.00;;;;;;;;;;5025925;28;20397;-62
2023/12/30 06:01:53;;;;;;;7.50;1.23;;;;;;;;;;5022433;28;20038;-63
2023/12/30 06:04:19;;;;;;;7.10;1.30;;;;;;;;;;5027354;28;20072;-62
2023/12/30 06:06:44;;;;;;;8.13;1.30;;;;;;;;;;5021882;28;20018;-63
2023/12/30 06:09:09;;;;;;;5.07;1.00;;;;;;;;;;5022616;28;20025;-63
2023/12/30 06:11:35;;;;;;;10.67;1.83;;;;;;;;;;5023937;28;20386;-62
2023/12/30 06:14:00;;;;;;;5.17;1.00;;;;;;;;;;5020230;28;20686;-62
2023/12/30 06:16:25;;;;;;;8.27;1.10;;;;;;;;;;5021856;28;20097;-63
2023/12/30 06:18:50;;;;;;;8.80;1.07;;;;;;;;;;5019252;28;20029;-63
2023/12/30 06:21:16;;;;;;;8.27;1.23;;;;;;;;;;5028116;28;20148;-63
2023/12/30 06:23:41;;;;;;;7.70;1.37;;;;;;;;;;5019084;28;20052;-62
2023/12/30 06:26:06;;;;;;;7.73;1.20;;;;;;;;;;5021271;28;20080;-62
2023/12/30 06:28:31;;;;;;;8.43;1.20;;;;;;;;;;5018788;28;20026;-62
2023/12/30 06:30:57;;;;;;;9.07;1.67;;;;;;;;;;5024332;28;20029;-62
2023/12/30 06:33:22;;;;;;;8.50;1.53;;;;;;;;;;5021032;28;20113;-62
2023/12/30 06:35:48;;;;;;;5.23;1.03;;;;;;;;;;5025926;28;20337;-61
2023/12/30 06:38:16;;;;;;;7.00;1.50;;;;;;;;;;5014442;28;20022;-61
2023/12/30 06:40:42;;;;;;;6.00;1.20;;;;;;;;;;5017475;28;20048;-61
2023/12/30 06:43:07;;;;;;;5.47;1.53;;;;;;;;;;5021571;28;20022;-61
2023/12/30 06:45:33;;;;;;;8.60;1.00;;;;;;;;;;5022955;28;20026;-74
2023/12/30 06:47:58;;;;;;;4.47;1.00;;;;;;;;;;5018101;28;20057;-73
2023/12/30 06:50:24;;;;;;;9.37;1.27;;;;;;;;;;5016617;28;20034;-66
2023/12/30 06:52:49;;;;;;;9.77;1.57;;;;;;;;;;5022376;28;20445;-68
2023/12/30 06:55:14;;;;;;;7.97;1.27;;;;;;;;;;5018263;28;20080;-67
2023/12/30 06:57:40;;;;;;;3.83;0.97;;;;;;;;;;5011200;28;20054;-65
2023/12/30 07:00:07;;;;;;;6.20;1.10;;;;;;;;;;5020588;28;20029;-66
2023/12/30 07:02:32;;;;;;;6.23;1.63;;;;;;;;;;5024264;28;20025;-62
2023/12/30 07:04:58;;;;;;;6.33;1.13;;;;;;;;;;5023064;28;20087;-63
2023/12/30 07:07:23;;;;;;;9.53;1.37;;;;;;;;;;5023592;28;20026;-65
2023/12/30 07:09:49;;;;;;;11.10;1.67;;;;;;;;;;5026064;28;20024;-65
2023/12/30 07:12:14;;;;;;;7.97;1.40;;;;;;;;;;5023331;28;20132;-61
2023/12/30 07:14:39;;;;;;;5.77;1.23;;;;;;;;;;5021833;28;20017;-61
2023/12/30 07:17:06;;;;;;;7.57;1.60;;;;;;;;;;5024056;28;20043;-61
2023/12/30 07:19:31;;;;;;;8.43;1.30;;;;;;;;;;5022879;28;20028;-61
2023/12/30 07:21:56;;;;;;;3.17;0.77;;;;;;;;;;5023021;28;20100;-61
2023/12/30 07:24:21;;;;;;;7.53;1.20;;;;;;;;;;5021780;28;20022;-61
2023/12/30 07:26:46;;;;;;;7.17;1.17;;;;;;;;;;5020498;28;20049;-60
2023/12/30 07:29:12;;;;;;;8.63;1.47;;;;;;;;;;5029729;28;20418;-61
2023/12/30 07:31:37;;;;;;;3.00;0.83;;;;;;;;;;5025107;28;20022;-61
2023/12/30 07:34:04;;;;;;;15.57;2.10;;;;;;;;;;5021041;28;20013;-61
2023/12/30 07:36:30;;;;;;;9.10;1.50;;;;;;;;;;5024227;28;20028;-61
2023/12/30 07:38:55;;;;;;;8.80;1.20;;;;;;;;;;5025066;28;20029;-61
2023/12/30 07:41:20;;;;;;;8.13;1.43;;;;;;;;;;5027596;28;20161;-61
2023/12/30 07:43:45;;;;;;;7.13;1.70;;;;;;;;;;5017920;28;20026;-62
2023/12/30 07:46:11;;;;;;;7.10;1.60;;;;;;;;;;5024154;28;20029;-61
2023/12/30 07:48:36;;;;;;;6.77;1.63;;;;;;;;;;5018863;28;20026;-62
2023/12/30 07:51:01;;;;;;;8.60;1.40;;;;;;;;;;5028674;28;20560;-62
2023/12/30 07:53:26;;;;;;;6.47;1.27;;;;;;;;;;5022032;28;20402;-62
2023/12/30 07:55:52;;;;;;;8.07;1.30;;;;;;;;;;5020075;28;20391;-61
2023/12/30 07:58:17;;;;;;;7.47;1.33;;;;;;;;;;5021689;28;20010;-62
2023/12/30 08:00:42;;;;;;;18.70;1.87;;;;;;;;;;5026840;28;20029;-62
2023/12/30 08:03:08;;;;;;;8.60;1.93;;;;;;;;;;5035443;28;20061;-62
2023/12/30 08:05:33;;;;;;;8.73;1.03;;;;;;;;;;5023235;28;20026;-61
2023/12/30 08:07:58;;;;;;;7.67;1.57;;;;;;;;;;5023143;28;20100;-62
2023/12/30 08:10:24;;;;;;;8.33;1.17;;;;;;;;;;5027312;28;20036;-65
2023/12/30 08:12:49;;;;;;;14.43;2.07;;;;;;;;;;5029635;28;20022;-62
2023/12/30 08:15:14;;;;;;;6.00;2.10;;;;;;;;;;5025883;28;20482;-61
2023/12/30 08:17:40;;;;;;;6.10;1.50;;;;;;;;;;5024112;28;20359;-61
2023/12/30 08:20:06;;;;;;;8.07;1.47;;;;;;;;;;5023495;28;20018;-62
2023/12/30 08:22:32;;;;;;;6.53;1.27;;;;;;;;;;5025287;28;20028;-62
2023/12/30 08:24:58;;;;;;;7.97;1.50;;;;;;;;;;5026061;28;20033;-61
2023/12/30 08:27:23;;;;;;;4.63;1.20;;;;;;;;;;5029974;28;20045;-61
2023/12/30 08:29:48;;;;;;;8.20;1.80;;;;;;;;;;5024229;28;20517;-62
2023/12/30 08:32:14;;;;;;;6.77;1.53;;;;;;;;;;5022704;28;20034;-62
2023/12/30 08:34:39;;;;;;;6.50;1.87;;;;;;;;;;5021682;28;20018;-62
2023/12/30 08:37:08;;;;;;;6.53;1.50;;;;;;;;;;5028221;28;20013;-62
2023/12/30 08:39:34;;;;;;;5.17;1.50;;;;;;;;;;5026449;28;20022;-62
2023/12/30 08:41:59;;;;;;;13.13;1.60;;;;;;;;;;5024000;28;20021;-62
2023/12/30 08:44:26;;;;;;;10.57;1.60;;;;;;;;;;5022182;28;20509;-62
2023/12/30 08:46:52;;;;;;;13.67;2.57;;;;;;;;;;5020742;28;20470;-62
2023/12/30 08:49:17;;;;;;;9.93;1.60;;;;;;;;;;5024783;28;20100;-60
2023/12/30 08:51:42;;;;;;;11.47;1.67;;;;;;;;;;5023265;28;20029;-62
2023/12/30 08:54:07;;;;;;;10.03;1.20;;;;;;;;;;5022992;28;20434;-61
2023/12/30 08:56:33;;;;;;;8.83;1.20;;;;;;;;;;5023639;28;20014;-62
2023/12/30 08:58:58;;;;;;;10.03;1.43;;;;;;;;;;5021325;28;20018;-61
2023/12/30 09:01:24;;;;;;;9.80;1.60;;;;;;;;;;5020167;28;20553;-61
2023/12/30 09:03:49;;;;;;;6.37;1.33;;;;;;;;;;5019351;28;20030;-61
2023/12/30 09:06:14;;;;;;;4.60;0.90;;;;;;;;;;5018155;28;20056;-61
2023/12/30 09:08:41;;;;;;;8.00;1.60;;;;;;;;;;5020194;28;20027;-61
2023/12/30 09:11:16;;;;;;;6.00;1.30;;;;;;;;;;5029247;28;20114;-61
2023/12/30 09:13:41;;;;;;;4.17;1.20;;;;;;;;;;5019672;28;20760;-61
2023/12/30 09:16:06;;;;;;;6.07;1.30;;;;;;;;;;5021773;28;20020;-62
2023/12/30 09:18:32;;;;;;;12.50;1.77;;;;;;;;;;5024770;28;20018;-61
2023/12/30 09:20:57;;;;;;;8.00;1.13;;;;;;;;;;5027448;28;20379;-62
2023/12/30 09:23:22;;;;;;;5.70;1.10;;;;;;;;;;5023079;28;20035;-61
2023/12/30 09:25:47;;;;;;;6.87;1.43;;;;;;;;;;5023367;28;20488;-61
2023/12/30 09:28:13;;;;;;;8.47;1.30;;;;;;;;;;5023884;28;20025;-61
2023/12/30 09:30:38;;;;;;;14.57;2.07;;;;;;;;;;5022345;28;20026;-61
2023/12/30 09:33:03;;;;;;;10.03;1.43;;;;;;;;;;5022860;28;20036;-61
2023/12/30 09:35:29;;;;;;;4.27;1.40;;;;;;;;;;5023263;28;20138;-61
2023/12/30 09:37:54;;;;;;;6.07;1.40;;;;;;;;;;5024493;28;20022;-61
2023/12/30 09:40:19;;;;;;;4.30;1.20;;;;;;;;;;5022916;28;20024;-61
2023/12/30 09:42:47;;;;;;;5.03;1.60;;;;;;;;;;5021104;28;20053;-61
2023/12/30 09:45:12;;;;;;;5.93;1.60;;;;;;;;;;5022984;28;20037;-61
2023/12/30 09:47:38;;;;;;;9.17;2.27;;;;;;;;;;5024675;28;20029;-61
2023/12/30 09:50:04;;;;;;;6.40;1.77;;;;;;;;;;5021621;28;20063;-61
2023/12/30 09:52:29;;;;;;;12.33;2.33;;;;;;;;;;5019965;28;20387;-61
2023/12/30 09:54:55;;;;;;;7.57;1.77;;;;;;;;;;5017433;28;20441;-61
2023/12/30 09:57:20;;;;;;;5.83;1.83;;;;;;;;;;5028884;28;20091;-61
2023/12/30 09:59:46;;;;;;;10.30;2.00;;;;;;;;;;5026199;28;20068;-61
2023/12/30 10:02:12;;;;;;;7.87;2.00;;;;;;;;;;5021510;28;20030;-61
2023/12/30 10:04:38;;;;;;;7.23;2.03;;;;;;;;;;5015659;28;20515;-61
2023/12/30 10:07:03;;;;;;;12.80;1.97;;;;;;;;;;5020283;28;20022;-61
2023/12/30 10:09:29;;;;;;;10.30;1.97;;;;;;;;;;5018833;28;20055;-61
2023/12/30 10:11:54;;;;;;;6.90;1.97;;;;;;;;;;5024848;28;20021;-61
2023/12/30 10:14:20;;;;;;;8.30;2.70;;;;;;;;;;5022188;28;20025;-60
2023/12/30 10:16:45;;;;;;;11.00;2.40;;;;;;;;;;5025871;28;20531;-61
2023/12/30 10:19:13;;;;;;;8.20;1.93;;;;;;;;;;5025282;28;20096;-61
2023/12/30 10:21:38;;;;;;;9.73;1.80;;;;;;;;;;5020316;28;20018;-61
2023/12/30 10:24:04;;;;;;;9.47;2.03;;;;;;;;;;5017840;28;20034;-61
2023/12/30 10:26:29;;;;;;;9.97;2.00;;;;;;;;;;5019657;28;20049;-61
2023/12/30 10:28:56;;;;;;;11.97;2.00;;;;;;;;;;5024578;28;20555;-61
2023/12/30 10:31:23;;;;;;;11.57;2.30;;;;;;;;;;5023069;28;20033;-61
2023/12/30 10:33:48;;;;;;;10.50;2.53;;;;;;;;;;5024403;28;20103;-61
2023/12/30 10:36:15;;;;;;;8.47;2.53;;;;;;;;;;5026449;28;20033;-61
2023/12/30 10:38:41;;;;;;;10.13;2.37;;;;;;;;;;5022898;28;20021;-62
2023/12/30 10:41:06;;;;;;;12.60;2.27;;;;;;;;;;5024885;28;20490;-61
2023/12/30 10:43:31;;;;;;;14.63;2.53;;;;;;;;;;5021545;28;20050;-61
2023/12/30 10:45:58;;;;;;;9.17;2.07;;;;;;;;;;5020993;28;20478;-61
2023/12/30 10:48:25;;;;;;;13.37;1.90;;;;;;;;;;5022469;28;20040;-61
2023/12/30 10:50:53;;;;;;;5.57;1.53;;;;;;;;;;5020325;28;20049;-61
2023/12/30 10:53:44;;;;;;;9.20;1.73;;;;;;;;;;5023979;28;20091;-61
2023/12/30 10:56:09;;;;;;;18.93;2.53;;;;;;;;;;5024695;28;20024;-62
2023/12/30 10:58:36;;;;;;;10.60;1.50;;;;;;;;;;5018733;28;20100;-61
2023/12/30 11:01:02;;;;;;;5.67;1.27;;;;;;;;;;5026275;28;20021;-61
2023/12/30 11:03:29;;;;;;;7.30;1.37;;;;;;;;;;5020156;28;20030;-61
2023/12/30 11:05:54;;;;;;;10.37;2.00;;;;;;;;;;5022892;28;20034;-63
2023/12/30 11:08:20;;;;;;;8.13;2.17;;;;;;;;;;5022376;28;20030;-62
2023/12/30 11:10:45;;;;;;;6.67;2.30;;;;;;;;;;5019880;28;20025;-61
2023/12/30 11:13:11;;;;;;;11.80;2.70;;;;;;;;;;5018267;28;20029;-61
2023/12/30 11:15:38;;;;;;;8.20;1.90;;;;;;;;;;5018093;28;20025;-61
2023/12/30 11:18:03;;;;;;;9.00;2.60;;;;;;;;;;5021574;28;20022;-61
2023/12/30 11:20:29;;;;;;;12.00;2.00;;;;;;;;;;5021920;28;20029;-61
2023/12/30 11:22:57;;;;;;;10.40;2.17;;;;;;;;;;5020446;28;20164;-61
2023/12/30 11:25:31;;;;;;;5.77;1.53;;;;;;;;;;5019586;28;20108;-61
2023/12/30 11:28:10;;;;;;;12.33;2.00;;;;;;;;;;5018140;28;20403;-61
2023/12/30 11:30:36;;;;;;;6.93;1.30;;;;;;;;;;5020900;28;20025;-61
2023/12/30 11:33:01;;;;;;;10.47;2.03;;;;;;;;;;5018368;28;20029;-61
2023/12/30 11:35:27;;;;;;;4.30;1.20;;;;;;;;;;5019894;28;20045;-61
2023/12/30 11:37:54;;;;;;;8.70;2.50;;;;;;;;;;5026149;28;20056;-62
2023/12/30 11:40:20;;;;;;;12.70;2.27;;;;;;;;;;5019702;28;20018;-61
2023/12/30 11:42:45;;;;;;;6.80;1.43;;;;;;;;;;5019690;28;20018;-61
2023/12/30 11:45:10;;;;;;;12.10;2.00;;;;;;;;;;5018186;28;20483;-61
2023/12/30 11:47:36;;;;;;;11.07;2.17;;;;;;;;;;5024421;28;20032;-62
2023/12/30 11:50:02;;;;;;;8.67;1.77;;;;;;;;;;5023605;28;20029;-61
2023/12/30 11:52:28;;;;;;;4.63;1.57;;;;;;;;;;5022674;28;20060;-61
2023/12/30 11:54:53;;;;;;;12.37;2.40;;;;;;;;;;5021887;28;20053;-62
2023/12/30 11:57:18;;;;;;;6.63;1.70;;;;;;;;;;5020761;28;20456;-61
2023/12/30 11:59:44;;;;;;;13.10;2.53;;;;;;;;;;5019099;28;20024;-61
2023/12/30 12:02:11;;;;;;;9.20;2.03;;;;;;;;;;5024292;28;20402;-61
2023/12/30 12:04:37;;;;;;;11.00;2.33;;;;;;;;;;5023729;28;20478;-61
2023/12/30 12:07:02;;;;;;;15.70;2.17;;;;;;;;;;5023775;28;20018;-61
2023/12/30 12:09:29;;;;;;;9.37;1.70;;;;;;;;;;5017966;28;20475;-61
2023/12/30 12:11:54;;;;;;;11.47;1.80;;;;;;;;;;5019447;28;20029;-62
2023/12/30 12:14:19;;;;;;;7.17;1.90;;;;;;;;;;5030020;28;20025;-61
2023/12/30 12:16:45;;;;;;;9.97;1.70;;;;;;;;;;5022300;28;20057;-61
2023/12/30 12:19:10;;;;;;;9.47;2.10;;;;;;;;;;5022168;28;20659;-61
2023/12/30 12:21:36;;;;;;;6.30;1.70;;;;;;;;;;5028082;28;20033;-61
2023/12/30 12:24:01;;;;;;;10.87;1.80;;;;;;;;;;5029079;28;20650;-62
2023/12/30 12:26:28;;;;;;;7.70;1.70;;;;;;;;;;5026648;28;20422;-61
2023/12/30 12:28:54;;;;;;;5.97;1.40;;;;;;;;;;5021495;28;20017;-61
2023/12/30 12:31:19;;;;;;;5.83;1.23;;;;;;;;;;5025612;28;20025;-62
2023/12/30 12:33:44;;;;;;;6.03;1.93;;;;;;;;;;5023724;28;20025;-62
2023/12/30 12:36:10;;;;;;;9.97;1.80;;;;;;;;;;5025638;28;20052;-62
2023/12/30 12:38:35;;;;;;;9.33;2.03;;;;;;;;;;5030247;28;20025;-61
2023/12/30 12:41:00;;;;;;;19.10;2.30;;;;;;;;;;5019787;28;20041;-61
2023/12/30 12:43:26;;;;;;;7.77;1.73;;;;;;;;;;5023691;28;20037;-62
2023/12/30 12:45:51;;;;;;;10.50;1.60;;;;;;;;;;5026770;28;20459;-61
2023/12/30 12:48:16;;;;;;;5.70;1.57;;;;;;;;;;5031581;28;20417;-62
2023/12/30 12:50:41;;;;;;;5.47;1.40;;;;;;;;;;5033975;28;20075;-62
2023/12/30 12:53:07;;;;;;;6.63;1.53;;;;;;;;;;5028353;28;20071;-61
2023/12/30 12:55:32;;;;;;;6.47;1.90;;;;;;;;;;5031725;28;20021;-62
2023/12/30 12:57:58;;;;;;;9.87;2.20;;;;;;;;;;5026322;28;20489;-62
2023/12/30 13:00:25;;;;;;;12.60;1.73;;;;;;;;;;5023724;28;20026;-61
2023/12/30 13:02:50;;;;;;;6.00;1.67;;;;;;;;;;5027711;28;20379;-61
2023/12/30 13:05:17;;;;;;;9.93;1.80;;;;;;;;;;5024875;28;20049;-61
2023/12/30 13:07:43;;;;;;;9.50;1.90;;;;;;;;;;5023564;28;20037;-61
2023/12/30 13:12:47;;;;;;;11.67;2.50;;;;;;;;;;5024435;28;20025;-62
2023/12/30 13:15:17;;;;;;;8.77;1.50;;;;;;;;;;5027542;28;20103;-62
2023/12/30 13:17:45;;;;;;;12.17;1.60;;;;;;;;;;5023528;28;20083;-62
2023/12/30 13:20:11;;;;;;;7.97;1.40;;;;;;;;;;5025370;28;20047;-62
2023/12/30 13:22:36;;;;;;;8.00;2.00;;;;;;;;;;5026274;28;20173;-62
2023/12/30 13:25:02;;;;;;;7.23;1.77;;;;;;;;;;5023199;28;20054;-62
2023/12/30 13:27:29;;;;;;;6.77;1.70;;;;;;;;;;5023675;28;20058;-62
2023/12/30 13:29:55;;;;;;;7.53;2.20;;;;;;;;;;5018362;28;20036;-62
2023/12/30 13:32:21;;;;;;;12.07;2.10;;;;;;;;;;5023721;28;20394;-62
2023/12/30 13:34:49;;;;;;;10.93;2.20;;;;;;;;;;5022644;28;20717;-62
2023/12/30 13:37:15;;;;;;;5.40;1.73;;;;;;;;;;5018336;28;20482;-62
2023/12/30 13:39:41;;;;;;;6.60;1.97;;;;;;;;;;5020329;28;20032;-63
2023/12/30 13:42:09;;;;;;;11.03;2.90;;;;;;;;;;5023112;28;20075;-63
2023/12/30 13:44:42;;;;;;;11.77;3.07;;;;;;;;;;5024556;28;20096;-63
2023/12/30 13:47:39;;;;;;;8.10;2.50;;;;;;;;;;5023091;28;20489;-63
2023/12/30 13:52:31;;;;;;;11.43;2.20;;;;;;;;;;5020513;28;20018;-63
2023/12/30 13:54:57;;;;;;;9.40;3.03;;;;;;;;;;5025970;28;20025;-63
2023/12/30 13:57:25;;;;;;;10.00;2.87;;;;;;;;;;5023723;28;20028;-63
2023/12/30 13:59:52;;;;;;;14.37;3.63;;;;;;;;;;5019219;28;20018;-63
2023/12/30 14:02:18;;;;;;;13.17;3.03;;;;;;;;;;5023833;28;20025;-63
2023/12/30 14:04:46;;;;;;;16.20;3.23;;;;;;;;;;5029554;28;20017;-63
2023/12/30 14:07:17;;;;;;;10.57;2.97;;;;;;;;;;5024723;28;20026;-63
2023/12/30 14:09:54;;;;;;;13.10;3.83;;;;;;;;;;5021313;28;20014;-63
2023/12/30 14:12:21;;;;;;;11.60;3.60;;;;;;;;;;5023489;28;20021;-64
2023/12/30 14:14:53;;;;;;;12.67;3.07;;;;;;;;;;5023018;28;20658;-63
2023/12/30 14:17:19;;;;;;;16.10;4.05;;;;;;;;;;5023222;28;20032;-63
2023/12/30 14:19:44;;;;;;;11.77;3.40;;;;;;;;;;5027852;28;20037;-63
2023/12/30 14:22:09;;;;;;;13.17;3.20;;;;;;;;;;5028158;28;20028;-63
2023/12/30 14:24:34;;;;;;;10.40;3.17;;;;;;;;;;5023330;28;20045;-67
2023/12/30 14:27:00;;;;;;;10.83;3.40;;;;;;;;;;5022836;28;20490;-63
2023/12/30 14:29:26;;;;;;;13.63;3.40;;;;;;;;;;5026030;28;20048;-63
2023/12/30 14:31:51;;;;;;;10.97;3.60;;;;;;;;;;5029166;28;20072;-63
2023/12/30 14:34:16;;;;;;;12.83;3.57;;;;;;;;;;5018350;28;20101;-63
2023/12/30 14:36:41;;;;;;;9.43;3.13;;;;;;;;;;5026074;28;20075;-63